Time;durP1;ratioP1;P1;durP2;ratioP2;P2;SDS_P1;SDS_P2;PMS_P1;PMS_P2;Temp;Humidity;BMP_temperature;BMP_pressure;BME280_temperature;BME280_humidity;BME280_pressure;Samples;Min_cycle;Max_cycle;Signal;HPM_P1;HPM_P2
2022/11/27 00:01:11;;;;;;;23.35;6.15;;;;;;;5.15;94.39;102197.81;5093518;28;20524;-65
2022/11/27 00:03:39;;;;;;;21.48;5.53;;;;;;;5.14;93.48;102202.22;5093237;28;20047;-65
2022/11/27 00:06:07;;;;;;;22.13;5.68;;;;;;;5.10;93.40;102189.34;5092824;28;20090;-65
2022/11/27 00:08:34;;;;;;;22.75;5.72;;;;;;;5.04;94.34;102187.00;5093469;28;20428;-65
2022/11/27 00:11:11;;;;;;;15.30;4.88;;;;;;;4.94;94.61;102190.13;5092773;28;20071;-65
2022/11/27 00:13:38;;;;;;;24.33;5.63;;;;;;;5.08;94.76;102189.41;5093602;28;20128;-65
2022/11/27 00:16:07;;;;;;;21.58;5.43;;;;;;;5.11;94.00;102185.75;5093166;28;20040;-65
2022/11/27 00:18:35;;;;;;;20.70;5.68;;;;;;;5.06;94.27;102169.38;5093581;28;20047;-65
2022/11/27 00:21:05;;;;;;;15.15;5.18;;;;;;;5.04;94.54;102179.13;5093145;28;20546;-65
2022/11/27 00:23:33;;;;;;;26.33;5.90;;;;;;;4.95;94.52;102180.50;5093596;28;20059;-65
2022/11/27 00:26:00;;;;;;;16.77;5.30;;;;;;;4.96;94.21;102174.28;5093211;28;20043;-65
2022/11/27 00:28:27;;;;;;;23.02;5.38;;;;;;;5.06;93.99;102179.88;5093353;28;20048;-65
2022/11/27 00:30:59;;;;;;;18.85;5.50;;;;;;;5.03;93.86;102178.28;5093518;28;20051;-65
2022/11/27 00:33:26;;;;;;;19.33;5.53;;;;;;;4.97;93.85;102168.09;5095280;28;20040;-65
2022/11/27 00:35:52;;;;;;;17.40;4.72;;;;;;;5.05;93.72;102172.94;5097572;28;20481;-65
2022/11/27 00:38:19;;;;;;;19.23;5.20;;;;;;;5.00;93.76;102168.78;5097014;28;20067;-65
2022/11/27 00:40:46;;;;;;;25.25;5.32;;;;;;;5.05;93.72;102171.16;5097354;28;20052;-65
2022/11/27 00:43:13;;;;;;;16.13;4.80;;;;;;;5.10;93.28;102168.28;5097057;28;20393;-65
2022/11/27 00:45:40;;;;;;;21.48;5.43;;;;;;;5.06;92.92;102166.72;5097264;28;20117;-65
2022/11/27 00:48:06;;;;;;;17.67;5.03;;;;;;;5.17;92.75;102167.03;5097070;28;20382;-66
2022/11/27 00:50:33;;;;;;;24.35;5.38;;;;;;;5.08;93.26;102172.78;5095827;28;20040;-65
2022/11/27 00:53:00;;;;;;;20.73;4.97;;;;;;;5.00;93.58;102165.28;5097026;28;20455;-67
2022/11/27 00:55:26;;;;;;;17.70;4.60;;;;;;;5.11;93.44;102156.81;5096808;28;20040;-65
2022/11/27 00:57:53;;;;;;;22.15;4.60;;;;;;;5.06;92.78;102159.72;5097075;28;20132;-65
2022/11/27 01:00:21;;;;;;;18.67;4.75;;;;;;;5.06;93.25;102153.59;5097237;28;20044;-65
2022/11/27 01:02:48;;;;;;;20.88;5.38;;;;;;;5.08;92.80;102147.31;5095626;28;20044;-65
2022/11/27 01:05:15;;;;;;;19.60;5.10;;;;;;;5.09;92.90;102150.78;5096472;28;20044;-64
2022/11/27 01:07:41;;;;;;;16.33;4.30;;;;;;;5.09;93.69;102150.78;5096355;28;20059;-64
2022/11/27 01:10:09;;;;;;;15.50;4.78;;;;;;;5.10;92.94;102145.44;5096337;28;20058;-64
2022/11/27 01:12:36;;;;;;;15.18;4.80;;;;;;;5.07;92.57;102156.13;5096546;28;20045;-64
2022/11/27 01:15:04;;;;;;;18.02;4.38;;;;;;;5.13;92.34;102157.56;5095189;28;20036;-64
2022/11/27 01:17:31;;;;;;;21.25;4.93;;;;;;;5.17;92.68;102157.34;5096355;28;20135;-64
2022/11/27 01:19:58;;;;;;;20.73;4.63;;;;;;;5.10;92.10;102160.41;5096503;28;20508;-65
2022/11/27 01:22:25;;;;;;;16.50;4.40;;;;;;;5.09;92.42;102145.53;5096543;28;20127;-65
2022/11/27 01:24:52;;;;;;;18.70;5.25;;;;;;;5.13;92.17;102139.16;5096457;28;20089;-65
2022/11/27 01:27:19;;;;;;;18.20;4.50;;;;;;;5.12;91.97;102140.13;5096189;28;20044;-65
2022/11/27 01:29:45;;;;;;;12.32;4.00;;;;;;;5.08;92.31;102143.84;5096293;28;20355;-65
2022/11/27 01:32:12;;;;;;;14.65;4.50;;;;;;;4.93;92.78;102143.75;5096290;28;20078;-65
2022/11/27 01:34:39;;;;;;;18.52;4.20;;;;;;;5.04;92.28;102127.38;5096054;28;20091;-65
2022/11/27 01:37:05;;;;;;;23.02;4.63;;;;;;;4.98;92.73;102132.97;5096145;28;20089;-65
2022/11/27 01:39:32;;;;;;;18.75;4.70;;;;;;;5.00;92.71;102133.72;5096125;28;20439;-65
2022/11/27 01:41:59;;;;;;;15.88;4.53;;;;;;;4.99;92.19;102125.00;5094441;28;20094;-65
2022/11/27 01:47:10;;;;;;;17.58;4.45;;;;;;;4.99;92.26;102134.69;5110827;27;20423;-66
2022/11/27 01:49:46;;;;;;;13.88;4.70;;;;;;;5.04;92.14;102129.16;5111392;28;20501;-65
2022/11/27 01:52:26;;;;;;;15.88;4.20;;;;;;;5.03;91.96;102119.56;5110940;28;20047;-66
2022/11/27 01:55:01;;;;;;;11.88;4.15;;;;;;;5.16;91.66;102123.22;5110893;28;20044;-66
2022/11/27 01:57:31;;;;;;;20.10;4.82;;;;;;;5.05;91.90;102121.19;5111055;28;20044;-65
2022/11/27 02:00:00;;;;;;;18.42;5.00;;;;;;;5.09;91.34;102112.19;5111192;28;20098;-65
2022/11/27 02:02:27;;;;;;;21.42;4.65;;;;;;;5.14;91.84;102109.31;5110910;28;20097;-66
2022/11/27 02:04:57;;;;;;;20.40;4.38;;;;;;;4.93;91.53;102111.31;5110386;28;20124;-65
2022/11/27 02:07:24;;;;;;;22.55;4.38;;;;;;;4.98;91.79;102112.78;5109025;28;20055;-65
2022/11/27 02:09:51;;;;;;;16.23;4.18;;;;;;;5.06;92.37;102117.63;5110759;28;20040;-66
2022/11/27 02:12:24;;;;;;;19.85;4.43;;;;;;;5.05;90.88;102115.91;5110337;28;20445;-65
2022/11/27 02:20:47;;;;;;;17.83;4.15;;;;;;;4.91;91.62;102100.03;5110725;27;20354;-65
2022/11/27 02:23:35;;;;;;;14.57;4.82;;;;;;;4.94;91.14;102105.16;5090651;28;20093;-65
2022/11/27 02:26:42;;;;;;;16.45;4.50;;;;;;;4.90;91.43;102101.00;5090185;28;20070;-65
2022/11/27 02:29:11;;;;;;;17.42;4.28;;;;;;;4.83;91.47;102108.34;5090331;28;20524;-66
2022/11/27 02:32:04;;;;;;;18.65;5.00;;;;;;;4.78;92.24;102102.50;5090511;28;20051;-65
2022/11/27 02:34:57;;;;;;;13.57;4.03;;;;;;;4.64;92.06;102100.63;5089317;28;20132;-64
2022/11/27 02:37:42;;;;;;;20.58;5.28;;;;;;;4.61;92.12;102093.75;5090207;28;20036;-65
2022/11/27 02:40:15;;;;;;;15.75;4.50;;;;;;;4.72;91.59;102101.03;5090564;28;20040;-64
2022/11/27 02:42:50;;;;;;;17.95;5.30;;;;;;;4.64;91.83;102078.72;5090479;28;20440;-65
2022/11/27 02:45:22;;;;;;;15.82;4.88;;;;;;;4.57;91.94;102075.59;5090319;28;20379;-65
2022/11/27 02:47:49;;;;;;;20.42;4.90;;;;;;;4.59;92.49;102061.44;5105927;28;20044;-65
2022/11/27 02:50:21;;;;;;;15.88;4.90;;;;;;;4.54;92.48;102057.34;5090303;28;20040;-65
2022/11/27 02:52:50;;;;;;;17.15;5.35;;;;;;;4.59;93.08;102053.53;5090318;28;20123;-65
2022/11/27 02:55:22;;;;;;;25.58;6.05;;;;;;;4.52;92.91;102051.34;5089916;28;20048;-65
2022/11/27 02:57:51;;;;;;;20.65;5.63;;;;;;;4.53;93.15;102047.75;5090399;28;20131;-66
2022/11/27 03:00:18;;;;;;;16.00;5.65;;;;;;;4.61;92.69;102046.41;5089811;28;20444;-65
2022/11/27 03:02:51;;;;;;;16.50;5.82;;;;;;;4.61;92.75;102041.16;5090237;28;20057;-65
2022/11/27 03:05:22;;;;;;;16.83;5.85;;;;;;;4.50;92.81;102048.78;5089570;28;20509;-65
2022/11/27 03:08:01;;;;;;;31.55;6.57;;;;;;;4.59;92.76;102040.41;5089457;28;20123;-65
2022/11/27 03:10:33;;;;;;;17.27;6.00;;;;;;;4.55;92.55;102033.63;5089980;28;20119;-66
2022/11/27 03:13:02;;;;;;;19.65;5.80;;;;;;;4.51;92.83;102028.59;5089843;28;20127;-66
2022/11/27 03:16:01;;;;;;;22.35;6.43;;;;;;;4.52;92.86;102023.28;5089950;28;20048;-66
2022/11/27 03:18:56;;;;;;;25.95;7.32;;;;;;;4.45;93.04;102021.91;5089198;28;20472;-66
2022/11/27 03:21:47;;;;;;;24.30;7.40;;;;;;;4.32;92.83;102023.50;5098984;28;20489;-65
2022/11/27 03:24:15;;;;;;;24.10;7.38;;;;;;;4.36;92.96;102028.50;5109685;28;20051;-65
2022/11/27 03:26:42;;;;;;;28.85;8.30;;;;;;;4.27;93.29;102031.63;5109429;28;20093;-66
2022/11/27 03:29:16;;;;;;;25.13;7.90;;;;;;;4.42;93.05;102028.19;5108671;28;20047;-66
2022/11/27 03:31:43;;;;;;;23.05;7.15;;;;;;;4.42;93.13;102033.44;5096226;28;20040;-66
2022/11/27 03:34:10;;;;;;;25.65;9.38;;;;;;;4.46;93.60;102028.88;5096362;28;20052;-66
2022/11/27 03:36:37;;;;;;;27.08;8.20;;;;;;;4.64;92.11;102031.41;5096113;28;20070;-66
2022/11/27 03:39:04;;;;;;;23.58;8.57;;;;;;;4.54;92.10;102029.28;5095069;28;20491;-66
2022/11/27 03:41:58;;;;;;;31.05;8.68;;;;;;;4.65;92.00;102033.97;5095740;28;20463;-66
2022/11/27 03:44:39;;;;;;;31.35;9.07;;;;;;;4.53;91.89;102029.38;5096143;28;20144;-66
2022/11/27 03:47:46;;;;;;;24.55;8.38;;;;;;;4.57;91.62;102025.66;5095768;28;20072;-66
2022/11/27 03:50:32;;;;;;;28.23;9.05;;;;;;;4.55;92.37;102028.38;5095990;28;20044;-66
2022/11/27 03:53:09;;;;;;;25.55;8.98;;;;;;;4.52;92.18;102028.53;5095354;28;20058;-66
2022/11/27 03:56:03;;;;;;;27.25;9.48;;;;;;;4.58;92.59;102038.72;5094846;28;20050;-66
2022/11/27 03:58:36;;;;;;;26.45;9.32;;;;;;;4.61;91.76;102021.94;5095355;28;20127;-66
2022/11/27 04:01:08;;;;;;;33.10;9.85;;;;;;;4.66;91.56;102019.91;5096140;28;20066;-66
2022/11/27 04:03:35;;;;;;;;;;;;;;;4.68;92.09;102009.31;5096279;28;20043;-66
2022/11/27 04:06:02;;;;;;;27.63;9.63;;;;;;;4.67;91.67;102016.31;5094831;28;20293;-66
2022/11/27 04:08:29;;;;;;;28.95;10.20;;;;;;;4.72;90.94;102005.56;5095175;28;20439;-66
2022/11/27 04:10:56;;;;;;;34.53;10.48;;;;;;;4.71;91.64;101996.84;5095581;28;20048;-66
2022/11/27 04:13:23;;;;;;;30.05;10.38;;;;;;;4.74;90.96;101987.94;5095732;28;20072;-66
2022/11/27 04:15:49;;;;;;;26.08;10.02;;;;;;;4.65;91.90;101991.91;5095206;28;20047;-66
2022/11/27 04:18:17;;;;;;;28.80;10.32;;;;;;;4.75;91.32;101989.63;5095243;28;20497;-66
2022/11/27 04:20:44;;;;;;;28.30;10.13;;;;;;;4.71;91.19;101982.81;5095094;28;20086;-66
2022/11/27 04:23:11;;;;;;;29.52;10.35;;;;;;;4.76;90.99;101980.78;5095261;28;20119;-66
2022/11/27 04:25:38;;;;;;;31.92;11.15;;;;;;;4.74;90.80;101978.25;5094005;28;20090;-66
2022/11/27 04:28:05;;;;;;;26.60;10.52;;;;;;;4.69;90.91;101968.94;5095373;28;20083;-66
2022/11/27 04:30:32;;;;;;;32.75;10.30;;;;;;;4.75;90.82;101963.34;5095374;28;20532;-66
2022/11/27 04:32:59;;;;;;;30.10;9.63;;;;;;;4.76;90.31;101962.38;5094740;28;20043;-66
2022/11/27 04:35:26;;;;;;;25.60;9.60;;;;;;;4.66;90.18;101955.94;5095157;28;20093;-66
2022/11/27 04:37:55;;;;;;;32.50;10.90;;;;;;;4.68;90.65;101956.72;5094595;28;20047;-66
2022/11/27 04:40:21;;;;;;;31.05;10.73;;;;;;;4.75;90.55;101958.94;5094866;28;20052;-66
2022/11/27 04:42:48;;;;;;;29.67;10.60;;;;;;;4.63;90.95;101951.72;5093771;28;20052;-65
2022/11/27 04:45:15;;;;;;;35.38;11.00;;;;;;;4.70;90.59;101955.69;5094939;28;20052;-66
2022/11/27 04:47:41;;;;;;;26.92;9.88;;;;;;;4.74;90.40;101959.84;5095055;28;20055;-67
2022/11/27 04:50:09;;;;;;;29.95;10.30;;;;;;;4.80;90.35;101954.25;5094786;28;20051;-66
2022/11/27 04:52:36;;;;;;;27.65;10.75;;;;;;;4.83;89.76;101952.38;5093563;28;20063;-66
2022/11/27 04:55:03;;;;;;;29.00;10.10;;;;;;;4.76;89.80;101954.50;5094703;28;20097;-65
2022/11/27 04:57:30;;;;;;;29.23;10.25;;;;;;;4.82;89.53;101956.81;5094760;28;20490;-65
2022/11/27 04:59:56;;;;;;;28.77;9.85;;;;;;;4.81;89.25;101953.31;5094535;28;20068;-65
2022/11/27 05:02:23;;;;;;;24.25;9.43;;;;;;;4.75;90.41;101945.78;5094551;28;20044;-66
2022/11/27 05:04:50;;;;;;;28.83;10.85;;;;;;;4.68;90.56;101957.56;5094705;28;20047;-65
2022/11/27 05:07:17;;;;;;;32.55;9.57;;;;;;;4.82;90.16;101946.28;5093971;28;20119;-65
2022/11/27 05:09:44;;;;;;;28.20;9.55;;;;;;;4.86;89.89;101941.66;5094582;28;20040;-65
2022/11/27 05:12:10;;;;;;;26.60;9.32;;;;;;;4.75;90.22;101939.69;5094225;28;20044;-65
2022/11/27 05:14:37;;;;;;;29.80;9.68;;;;;;;4.86;89.40;101936.41;5094135;28;20040;-65
2022/11/27 05:17:04;;;;;;;26.00;9.25;;;;;;;4.84;89.52;101933.91;5093934;28;20044;-65
2022/11/27 05:19:31;;;;;;;25.10;9.02;;;;;;;4.91;89.90;101939.63;5094005;28;20060;-66
2022/11/27 05:21:58;;;;;;;29.77;10.02;;;;;;;4.94;89.85;101936.84;5094581;28;20043;-65
2022/11/27 05:24:26;;;;;;;25.73;9.73;;;;;;;4.80;89.51;101927.97;5094323;28;20047;-66
2022/11/27 05:26:55;;;;;;;28.05;9.25;;;;;;;4.84;90.29;101928.66;5092952;28;20048;-66
2022/11/27 05:29:23;;;;;;;22.83;8.68;;;;;;;4.88;90.21;101919.63;5094086;28;20048;-65
2022/11/27 05:31:50;;;;;;;31.40;9.43;;;;;;;4.79;90.19;101917.53;5094244;28;20497;-65
2022/11/27 05:34:17;;;;;;;26.17;9.25;;;;;;;4.80;90.07;101912.19;5093787;28;20102;-65
2022/11/27 05:36:45;;;;;;;21.20;8.07;;;;;;;4.95;90.15;101905.19;5094065;28;20511;-66
2022/11/27 05:39:12;;;;;;;24.27;9.18;;;;;;;4.87;89.36;101912.66;5093690;28;20044;-65
2022/11/27 05:41:41;;;;;;;26.50;9.48;;;;;;;4.92;89.80;101918.50;5093711;28;20554;-66
2022/11/27 05:44:12;;;;;;;25.85;9.43;;;;;;;4.85;90.19;101908.44;5092483;28;20044;-65
2022/11/27 05:46:39;;;;;;;25.63;9.07;;;;;;;4.85;89.79;101901.41;5093379;28;20067;-65
2022/11/27 05:49:06;;;;;;;23.42;8.80;;;;;;;4.96;89.62;101891.09;5094101;28;20044;-65
2022/11/27 05:51:33;;;;;;;31.35;9.77;;;;;;;4.97;89.61;101892.81;5093595;28;20047;-66
2022/11/27 05:53:59;;;;;;;23.08;7.93;;;;;;;4.93;89.21;101882.53;5093465;28;20066;-65
2022/11/27 05:56:26;;;;;;;24.10;8.68;;;;;;;4.96;88.94;101885.00;5093631;28;20048;-65
2022/11/27 05:58:52;;;;;;;24.70;8.57;;;;;;;5.08;88.75;101880.81;5092393;28;20055;-65
2022/11/27 06:01:19;;;;;;;30.05;8.57;;;;;;;5.08;88.80;101891.34;5092754;28;20075;-65
2022/11/27 06:03:46;;;;;;;24.80;8.70;;;;;;;4.99;88.24;101884.81;5093440;28;20044;-65
2022/11/27 06:06:17;;;;;;;24.98;8.38;;;;;;;4.93;89.48;101888.66;5092940;28;20040;-66
2022/11/27 06:08:45;;;;;;;20.27;8.38;;;;;;;4.92;90.35;101873.81;5093462;28;20134;-66
2022/11/27 06:11:15;;;;;;;23.92;7.57;;;;;;;4.99;90.01;101875.16;5093551;28;20048;-65
2022/11/27 06:13:43;;;;;;;21.50;7.95;;;;;;;5.04;89.30;101877.53;5093424;28;20394;-65
2022/11/27 06:16:14;;;;;;;26.83;7.72;;;;;;;5.00;89.01;101882.13;5093465;28;20048;-65
2022/11/27 06:18:41;;;;;;;20.88;8.00;;;;;;;4.93;88.76;101880.78;5093184;28;20513;-65
2022/11/27 06:21:10;;;;;;;19.48;7.70;;;;;;;4.93;89.15;101872.00;5093161;28;20184;-65
2022/11/27 06:23:37;;;;;;;23.02;7.90;;;;;;;4.98;89.35;101856.81;5093285;28;20401;-66
2022/11/27 06:26:23;;;;;;;20.13;7.25;;;;;;;5.03;89.11;101860.03;5093157;28;20097;-66
2022/11/27 06:28:52;;;;;;;20.05;7.18;;;;;;;4.86;88.74;101854.91;5093562;28;20040;-65
2022/11/27 06:31:21;;;;;;;19.77;7.50;;;;;;;4.92;89.28;101851.94;5093245;28;20044;-65
2022/11/27 06:33:49;;;;;;;23.52;7.88;;;;;;;4.91;88.88;101852.84;5093566;28;20127;-65
2022/11/27 06:36:17;;;;;;;19.23;7.72;;;;;;;4.96;88.15;101862.16;5093127;28;20040;-65
2022/11/27 06:38:44;;;;;;;21.13;7.40;;;;;;;4.98;88.48;101865.59;5092001;28;20054;-65
2022/11/27 06:41:14;;;;;;;20.15;7.45;;;;;;;5.00;89.06;101847.06;5093006;28;20432;-65
2022/11/27 06:43:41;;;;;;;22.98;7.78;;;;;;;4.92;89.44;101844.88;5093050;28;20051;-65
2022/11/27 06:46:11;;;;;;;25.23;7.90;;;;;;;4.94;89.13;101829.84;5093047;28;20040;-65
2022/11/27 06:48:38;;;;;;;21.20;7.38;;;;;;;4.91;89.15;101827.44;5108844;28;20044;-66
2022/11/27 06:51:06;;;;;;;22.95;7.80;;;;;;;4.79;89.63;101836.88;5092152;28;20040;-65
2022/11/27 06:53:37;;;;;;;24.58;8.45;;;;;;;4.83;90.12;101827.03;5092941;28;20055;-65
2022/11/27 06:56:05;;;;;;;17.98;8.10;;;;;;;4.84;89.60;101828.72;5092723;28;20040;-65
2022/11/27 06:58:32;;;;;;;19.65;7.85;;;;;;;4.93;89.48;101824.69;5093313;28;20037;-65
2022/11/27 07:01:00;;;;;;;23.63;7.65;;;;;;;4.91;89.78;101821.31;5091786;28;20040;-65
2022/11/27 07:03:27;;;;;;;34.00;7.60;;;;;;;4.89;89.24;101799.53;5093175;28;20094;-65
2022/11/27 07:05:54;;;;;;;22.88;8.88;;;;;;;4.91;89.37;101802.91;5094155;28;20133;-65
2022/11/27 07:08:21;;;;;;;23.42;7.95;;;;;;;4.99;89.59;101804.13;5079037;28;20490;-65
2022/11/27 07:10:48;;;;;;;22.85;7.93;;;;;;;4.98;88.97;101791.94;5076294;28;20043;-65
2022/11/27 07:13:15;;;;;;;25.58;7.97;;;;;;;4.99;88.61;101798.88;5076003;28;20067;-65
2022/11/27 07:15:42;;;;;;;26.85;8.40;;;;;;;5.04;88.92;101795.13;5058814;28;20067;-65
2022/11/27 07:18:09;;;;;;;21.77;7.35;;;;;;;5.07;88.91;101795.78;5075809;28;20051;-65
2022/11/27 07:20:35;;;;;;;21.15;7.03;;;;;;;5.13;89.02;101797.19;5078819;28;20041;-65
2022/11/27 07:23:02;;;;;;;20.58;7.93;;;;;;;5.07;88.87;101790.53;5096233;28;20545;-66
2022/11/27 07:25:29;;;;;;;21.90;7.07;;;;;;;5.13;87.86;101791.94;5096429;28;20044;-65
2022/11/27 07:27:55;;;;;;;21.88;7.20;;;;;;;5.16;88.58;101786.50;5096381;28;20570;-65
2022/11/27 07:30:23;;;;;;;19.23;7.22;;;;;;;5.19;88.11;101783.69;5096486;28;20040;-65
2022/11/27 07:32:50;;;;;;;21.45;7.00;;;;;;;5.22;87.97;101778.25;5096511;28;20043;-65
2022/11/27 07:35:17;;;;;;;24.05;7.22;;;;;;;5.19;88.95;101778.44;5096071;28;20043;-65
2022/11/27 07:37:43;;;;;;;22.25;7.90;;;;;;;5.19;89.09;101784.53;5096113;28;20055;-64
2022/11/27 07:40:10;;;;;;;23.17;8.43;;;;;;;5.32;88.47;101783.78;5095872;28;20036;-64
2022/11/27 07:42:37;;;;;;;26.95;7.63;;;;;;;5.34;88.40;101782.72;5096055;28;20044;-64
2022/11/27 07:45:07;;;;;;;18.80;7.50;;;;;;;5.39;87.46;101766.66;5096209;28;20074;-65
2022/11/27 07:47:34;;;;;;;22.90;7.25;;;;;;;5.39;87.53;101764.03;5096189;28;20052;-65
2022/11/27 07:50:01;;;;;;;20.58;7.47;;;;;;;5.42;87.69;101757.72;5096277;28;20044;-65
2022/11/27 07:52:28;;;;;;;19.42;7.35;;;;;;;5.50;88.08;101766.84;5095668;28;20405;-65
2022/11/27 07:54:54;;;;;;;22.10;8.00;;;;;;;5.52;87.90;101769.38;5096192;28;20044;-65
2022/11/27 07:57:21;;;;;;;17.27;7.40;;;;;;;5.49;87.77;101759.03;5095714;28;20052;-65
2022/11/27 07:59:48;;;;;;;18.23;7.38;;;;;;;5.58;87.67;101761.97;5094995;28;20047;-66
2022/11/27 08:02:14;;;;;;;17.23;7.22;;;;;;;5.68;86.87;101764.84;5095612;28;20051;-65
2022/11/27 08:04:41;;;;;;;18.98;7.50;;;;;;;5.67;87.68;101768.41;5095510;28;20101;-65
2022/11/27 08:07:08;;;;;;;20.58;6.72;;;;;;;5.70;87.08;101762.13;5095212;28;20044;-65
2022/11/27 08:09:36;;;;;;;16.98;7.25;;;;;;;5.72;87.30;101758.44;5094424;28;20397;-65
2022/11/27 08:12:03;;;;;;;19.70;7.15;;;;;;;5.67;87.49;101746.50;5095658;28;20048;-65
2022/11/27 08:14:30;;;;;;;22.00;7.03;;;;;;;5.80;87.53;101746.56;5095405;28;20044;-64
2022/11/27 08:16:57;;;;;;;22.05;7.22;;;;;;;5.87;86.18;101750.50;5095555;28;20493;-65
2022/11/27 08:19:24;;;;;;;21.27;7.63;;;;;;;5.89;86.28;101745.97;5077042;28;20135;-64
2022/11/27 08:21:51;;;;;;;19.80;6.70;;;;;;;6.05;86.57;101741.44;5095157;28;20090;-65
2022/11/27 08:24:17;;;;;;;17.33;7.43;;;;;;;6.18;85.26;101762.53;5095400;28;20109;-65
2022/11/27 08:26:44;;;;;;;17.55;7.32;;;;;;;6.18;85.83;101759.91;5093721;28;20052;-65
2022/11/27 08:29:11;;;;;;;17.88;7.30;;;;;;;6.20;85.19;101771.19;5094237;28;20043;-65
2022/11/27 08:31:39;;;;;;;18.52;6.88;;;;;;;6.30;84.45;101763.53;5095185;28;20040;-65
2022/11/27 08:34:05;;;;;;;18.75;6.70;;;;;;;6.30;84.70;101774.91;5077342;28;20048;-65
2022/11/27 08:36:32;;;;;;;18.15;7.22;;;;;;;6.37;84.89;101767.47;5093571;28;20066;-65
2022/11/27 08:38:59;;;;;;;19.90;6.70;;;;;;;6.39;83.95;101770.84;5077014;28;20055;-65
2022/11/27 08:41:26;;;;;;;16.05;6.68;;;;;;;6.44;83.98;101760.84;5094741;28;20032;-65
2022/11/27 08:43:52;;;;;;;21.60;6.40;;;;;;;6.57;83.93;101754.72;5093526;28;20048;-65
2022/11/27 08:46:19;;;;;;;14.95;6.25;;;;;;;6.35;83.42;101758.81;5093652;28;20044;-67
2022/11/27 08:48:46;;;;;;;19.17;6.68;;;;;;;6.43;84.21;101750.41;5094646;28;20101;-65
2022/11/27 08:51:14;;;;;;;17.17;7.13;;;;;;;6.42;84.41;101749.56;5094792;28;20090;-65
2022/11/27 08:53:43;;;;;;;18.65;6.65;;;;;;;6.58;84.41;101756.44;5093406;28;20044;-65
2022/11/27 08:56:16;;;;;;;18.40;7.15;;;;;;;6.62;84.79;101745.59;5094543;28;20044;-66
2022/11/27 08:58:43;;;;;;;20.23;6.28;;;;;;;6.52;84.39;101737.44;5094273;28;20436;-65
2022/11/27 09:01:15;;;;;;;19.13;7.03;;;;;;;6.52;83.96;101745.34;5094485;28;20489;-65
2022/11/27 09:03:42;;;;;;;16.52;6.90;;;;;;;6.61;83.59;101740.41;5094387;28;20036;-65
2022/11/27 09:06:11;;;;;;;22.45;6.75;;;;;;;6.65;84.47;101744.53;5093750;28;20077;-65
2022/11/27 09:08:40;;;;;;;20.17;6.65;;;;;;;6.76;82.52;101731.44;5094664;28;20397;-65
2022/11/27 09:11:08;;;;;;;16.63;6.13;;;;;;;6.79;83.43;101731.25;5094149;28;20044;-65
2022/11/27 09:13:35;;;;;;;19.95;6.50;;;;;;;6.86;81.98;101719.31;5094000;28;20047;-65
2022/11/27 09:16:04;;;;;;;20.38;6.75;;;;;;;6.86;82.50;101716.69;5094504;28;20051;-65
2022/11/27 09:18:31;;;;;;;17.80;7.38;;;;;;;6.84;82.45;101713.31;5093659;28;20048;-65
2022/11/27 09:21:00;;;;;;;19.20;7.30;;;;;;;6.86;82.47;101711.41;5093023;28;20048;-65
2022/11/27 09:23:28;;;;;;;14.68;5.75;;;;;;;6.99;82.40;101711.41;5094088;28;20457;-65
2022/11/27 09:25:59;;;;;;;21.85;7.20;;;;;;;7.11;82.22;101709.69;5094251;28;20052;-65
2022/11/27 09:28:25;;;;;;;23.85;6.88;;;;;;;7.16;81.25;101706.72;5093270;28;20055;-65
2022/11/27 09:30:59;;;;;;;18.87;6.50;;;;;;;7.40;81.08;101696.22;5093148;28;20048;-65
2022/11/27 09:33:29;;;;;;;16.67;6.78;;;;;;;7.51;79.70;101696.28;5093812;28;20048;-65
2022/11/27 09:35:56;;;;;;;22.70;6.75;;;;;;;7.54;79.36;101693.44;5076491;28;20131;-65
2022/11/27 09:38:23;;;;;;;18.10;7.75;;;;;;;7.49;79.88;101685.88;5093943;28;20168;-65
2022/11/27 09:40:52;;;;;;;18.60;6.57;;;;;;;7.49;79.29;101685.00;5075984;28;20036;-65
2022/11/27 09:43:27;;;;;;;16.42;6.43;;;;;;;7.50;79.10;101686.69;5093809;28;20047;-65
2022/11/27 09:46:02;;;;;;;15.63;5.93;;;;;;;7.47;79.02;101692.19;5093758;28;20101;-65
2022/11/27 09:48:40;;;;;;;16.98;6.38;;;;;;;7.49;78.09;101695.56;5093920;28;20040;-65
2022/11/27 09:51:24;;;;;;;19.65;6.63;;;;;;;7.54;79.13;101696.06;5092182;28;20051;-65
2022/11/27 09:53:59;;;;;;;18.92;6.30;;;;;;;7.40;78.18;101686.50;5092059;28;20119;-65
2022/11/27 09:56:28;;;;;;;17.02;6.35;;;;;;;7.34;78.77;101686.13;5093523;28;20058;-65
2022/11/27 09:58:57;;;;;;;19.45;6.50;;;;;;;7.37;79.13;101693.78;5092627;28;20050;-65
2022/11/27 10:01:27;;;;;;;15.63;6.20;;;;;;;7.30;78.93;101694.25;5083181;28;20048;-66
2022/11/27 10:04:01;;;;;;;19.27;6.60;;;;;;;7.37;79.47;101685.88;5092538;28;20044;-66
2022/11/27 10:06:46;;;;;;;20.63;6.55;;;;;;;7.48;79.17;101684.16;5074499;28;20048;-66
2022/11/27 10:09:53;;;;;;;17.83;6.80;;;;;;;7.38;79.16;101684.94;5093098;28;20048;-67
2022/11/27 10:12:33;;;;;;;16.52;6.25;;;;;;;7.37;79.39;101683.22;5093256;28;20044;-65
2022/11/27 10:15:10;;;;;;;18.73;7.15;;;;;;;7.46;79.19;101691.34;5078324;28;20076;-65
2022/11/27 10:17:44;;;;;;;18.48;7.30;;;;;;;7.39;77.79;101681.34;5072321;28;20421;-65
2022/11/27 10:20:31;;;;;;;22.10;6.80;;;;;;;7.52;78.39;101681.31;5072303;28;20083;-65
2022/11/27 10:23:11;;;;;;;18.27;6.93;;;;;;;7.60;78.60;101679.78;5089264;28;20401;-65
2022/11/27 10:25:51;;;;;;;17.92;6.43;;;;;;;7.65;77.80;101676.81;5023987;28;20049;-64
2022/11/27 10:28:29;;;;;;;18.55;6.90;;;;;;;7.68;78.56;101671.31;5072942;28;20040;-65
2022/11/27 10:31:01;;;;;;;15.88;6.65;;;;;;;7.75;78.95;101669.03;5071945;28;20040;-64
2022/11/27 10:33:50;;;;;;;19.20;6.97;;;;;;;7.69;77.62;101657.13;5073150;28;20068;-64
2022/11/27 10:36:34;;;;;;;17.75;7.47;;;;;;;7.73;77.52;101663.03;5072754;28;20049;-65
2022/11/27 10:39:03;;;;;;;15.25;7.07;;;;;;;7.74;78.09;101654.16;5072953;28;20071;-65
2022/11/27 10:41:53;;;;;;;22.30;7.28;;;;;;;7.69;76.75;101646.56;5076211;28;20045;-65
2022/11/27 10:44:29;;;;;;;14.73;7.00;;;;;;;7.92;77.75;101644.03;5061863;28;20079;-65
2022/11/27 10:47:02;;;;;;;17.50;6.97;;;;;;;7.66;76.39;101634.44;5077338;28;20052;-65
2022/11/27 10:49:29;;;;;;;17.20;6.72;;;;;;;7.77;77.58;101632.81;5077788;28;20573;-65
2022/11/27 10:51:56;;;;;;;19.52;7.05;;;;;;;7.83;77.17;101633.19;5079361;28;20048;-65
2022/11/27 10:54:32;;;;;;;21.83;6.97;;;;;;;7.79;76.89;101621.16;5087210;28;20443;-65
2022/11/27 10:57:39;;;;;;;21.60;7.47;;;;;;;7.87;77.03;101631.16;5082269;28;20040;-65
2022/11/27 11:00:20;;;;;;;15.90;7.07;;;;;;;7.91;77.17;101622.03;5100962;28;20131;-65
2022/11/27 11:02:47;;;;;;;19.15;7.80;;;;;;;7.90;77.06;101617.72;5091143;28;20555;-65
2022/11/27 11:05:24;;;;;;;20.27;7.57;;;;;;;7.96;77.31;101606.69;5074857;28;20037;-65
2022/11/27 11:08:17;;;;;;;18.88;7.55;;;;;;;7.98;77.38;101604.78;5075554;28;20040;-65
2022/11/27 11:10:58;;;;;;;21.90;7.95;;;;;;;7.85;77.61;101610.13;5076348;28;20051;-65
2022/11/27 11:13:30;;;;;;;19.95;7.25;;;;;;;7.92;77.39;101592.03;5077056;28;20056;-65
2022/11/27 11:15:58;;;;;;;;;;;;;;;7.90;77.78;101580.75;5075768;28;20094;-65
2022/11/27 11:18:30;;;;;;;15.85;7.07;;;;;;;7.83;78.02;101548.66;5075838;28;19921;-66
2022/11/27 11:21:01;;;;;;;17.73;7.15;;;;;;;7.82;79.07;101517.94;5076932;28;20551;-66
2022/11/27 11:23:35;;;;;;;20.48;7.45;;;;;;;7.68;79.59;101516.31;5076090;28;20067;-66
2022/11/27 11:26:07;;;;;;;18.33;7.68;;;;;;;7.60;80.78;101521.34;5076465;28;20128;-66
2022/11/27 11:28:45;;;;;;;19.60;7.45;;;;;;;7.68;81.56;101504.94;5075957;28;20048;-67
2022/11/27 11:31:17;;;;;;;20.35;6.90;;;;;;;7.73;82.46;101483.44;5076421;28;20090;-66
2022/11/27 11:33:56;;;;;;;19.20;7.40;;;;;;;7.60;81.16;101471.16;5075869;28;20119;-66
2022/11/27 11:36:24;;;;;;;15.82;7.25;;;;;;;7.73;80.44;101464.94;5058704;28;20044;-66
2022/11/27 11:38:52;;;;;;;16.42;6.88;;;;;;;7.70;79.68;101487.16;5075747;28;20051;-66
2022/11/27 11:41:19;;;;;;;16.40;7.43;;;;;;;7.77;79.43;101506.03;5076285;28;20037;-66
2022/11/27 11:43:55;;;;;;;21.95;7.47;;;;;;;7.67;79.56;101497.94;5075869;28;20048;-66
2022/11/27 11:46:25;;;;;;;14.57;7.28;;;;;;;7.79;79.57;101483.81;5075576;28;20127;-66
2022/11/27 11:48:55;;;;;;;17.60;6.78;;;;;;;7.73;80.21;101489.59;5076015;28;20127;-66